Time;durP1;ratioP1;P1;durP2;ratioP2;P2;SDS_P1;SDS_P2;PMS_P1;PMS_P2;Temp;Humidity;BMP_temperature;BMP_pressure;BME280_temperature;BME280_humidity;BME280_pressure;Samples;Min_cycle;Max_cycle;Signal;HPM_P1;HPM_P2
2023/08/13 00:00:41;;;;;;;1.88;1.77;;;;;;;;;;10370952;28;20041;-60
2023/08/13 00:05:47;;;;;;;1.98;1.88;;;;;;;;;;10370758;28;20029;-60
2023/08/13 00:10:48;;;;;;;2.03;1.80;;;;;;;;;;10371143;28;20030;-60
2023/08/13 00:16:06;;;;;;;2.28;2.10;;;;;;;;;;10370960;28;20022;-60
2023/08/13 00:21:06;;;;;;;1.98;1.85;;;;;;;;;;10370270;28;20075;-60
2023/08/13 00:26:07;;;;;;;2.30;2.10;;;;;;;;;;10369056;28;20021;-60
2023/08/13 00:31:14;;;;;;;2.08;1.90;;;;;;;;;;10369609;28;20030;-60
2023/08/13 00:36:15;;;;;;;1.80;1.70;;;;;;;;;;10370042;28;20033;-60
2023/08/13 00:41:27;;;;;;;1.75;1.65;;;;;;;;;;10369979;28;20036;-60
2023/08/13 00:46:28;;;;;;;1.95;1.85;;;;;;;;;;10369433;28;20387;-60
2023/08/13 00:51:38;;;;;;;1.95;1.80;;;;;;;;;;10369183;28;20109;-60
2023/08/13 00:56:40;;;;;;;1.85;1.75;;;;;;;;;;10369475;28;20026;-60
2023/08/13 01:01:42;;;;;;;1.83;1.73;;;;;;;;;;10369321;28;20026;-60
2023/08/13 01:07:35;;;;;;;1.70;1.60;;;;;;;;;;10369124;28;20117;-60
2023/08/13 01:13:02;;;;;;;2.38;2.05;;;;;;;;;;10355356;28;20034;-60
2023/08/13 01:18:07;;;;;;;1.80;1.70;;;;;;;;;;10367335;28;20477;-60
2023/08/13 01:23:27;;;;;;;1.70;1.60;;;;;;;;;;10368825;28;20026;-60
2023/08/13 01:28:48;;;;;;;1.83;1.73;;;;;;;;;;10368555;28;20129;-60
2023/08/13 01:33:56;;;;;;;1.55;1.45;;;;;;;;;;10367333;28;20025;-60
2023/08/13 01:39:47;;;;;;;1.90;1.70;;;;;;;;;;10366745;28;20271;-60
2023/08/13 01:44:51;;;;;;;1.63;1.52;;;;;;;;;;10367599;28;20042;-60
2023/08/13 01:49:51;;;;;;;1.70;1.60;;;;;;;;;;10367863;28;20557;-60
2023/08/13 01:55:03;;;;;;;1.90;1.80;;;;;;;;;;10368140;28;20026;-60
2023/08/13 02:00:15;;;;;;;2.10;2.00;;;;;;;;;;10367434;28;20475;-60
2023/08/13 02:05:18;;;;;;;2.55;1.80;;;;;;;;;;10367385;28;20358;-60
2023/08/13 02:10:19;;;;;;;1.58;1.48;;;;;;;;;;10367508;28;20470;-60
2023/08/13 02:15:20;;;;;;;1.85;1.70;;;;;;;;;;10367809;28;20113;-60
2023/08/13 02:20:21;;;;;;;1.63;1.52;;;;;;;;;;10367641;28;20037;-60
2023/08/13 02:25:21;;;;;;;1.70;1.60;;;;;;;;;;10373049;28;20030;-60
2023/08/13 02:30:22;;;;;;;2.05;1.95;;;;;;;;;;10374649;28;20045;-60
2023/08/13 02:35:32;;;;;;;1.92;1.83;;;;;;;;;;10389791;28;20037;-60
2023/08/13 02:40:33;;;;;;;1.60;1.50;;;;;;;;;;10374439;28;20536;-60
2023/08/13 02:45:34;;;;;;;2.03;1.92;;;;;;;;;;10373970;28;20050;-60
2023/08/13 02:50:41;;;;;;;1.90;1.73;;;;;;;;;;10374527;28;20049;-60
2023/08/13 02:55:44;;;;;;;1.80;1.70;;;;;;;;;;10373815;28;20527;-60
2023/08/13 03:00:45;;;;;;;1.70;1.60;;;;;;;;;;10373565;28;20033;-60
2023/08/13 03:05:45;;;;;;;1.85;1.75;;;;;;;;;;10373441;28;20521;-60
2023/08/13 03:10:49;;;;;;;1.75;1.65;;;;;;;;;;10373329;28;20076;-60
2023/08/13 03:15:49;;;;;;;1.90;1.80;;;;;;;;;;10373625;28;20030;-60
2023/08/13 03:20:50;;;;;;;1.63;1.52;;;;;;;;;;10373062;28;20357;-60
2023/08/13 03:25:51;;;;;;;1.60;1.50;;;;;;;;;;10372766;28;20072;-60
2023/08/13 03:31:01;;;;;;;1.60;1.45;;;;;;;;;;10372583;28;20025;-59
2023/08/13 03:36:02;;;;;;;1.88;1.77;;;;;;;;;;10372427;28;20045;-60
2023/08/13 03:41:02;;;;;;;1.63;1.52;;;;;;;;;;10372134;28;20509;-60
2023/08/13 03:46:03;;;;;;;1.65;1.55;;;;;;;;;;10368857;28;20053;-60
2023/08/13 03:51:24;;;;;;;1.67;1.58;;;;;;;;;;10372269;28;20096;-60
2023/08/13 03:56:25;;;;;;;1.60;1.50;;;;;;;;;;10371607;28;20034;-60
2023/08/13 04:01:26;;;;;;;1.65;1.55;;;;;;;;;;10371252;28;20034;-60
2023/08/13 04:06:28;;;;;;;1.88;1.77;;;;;;;;;;10371241;28;20026;-60
2023/08/13 04:11:31;;;;;;;1.50;1.40;;;;;;;;;;10371565;28;20061;-60
2023/08/13 04:16:32;;;;;;;1.70;1.60;;;;;;;;;;10370832;28;20022;-60
2023/08/13 04:21:32;;;;;;;1.58;1.48;;;;;;;;;;10371589;28;20429;-60
2023/08/13 04:27:04;;;;;;;1.50;1.40;;;;;;;;;;10370502;28;20355;-60
2023/08/13 04:32:28;;;;;;;1.67;1.58;;;;;;;;;;10283403;28;20478;-60
2023/08/13 04:37:38;;;;;;;1.67;1.58;;;;;;;;;;10283118;28;20534;-60
2023/08/13 04:42:42;;;;;;;1.85;1.60;;;;;;;;;;10283132;28;20034;-60
2023/08/13 04:47:43;;;;;;;2.00;1.90;;;;;;;;;;10277064;28;20046;-59
2023/08/13 04:52:58;;;;;;;1.60;1.50;;;;;;;;;;10282697;28;20057;-60
2023/08/13 04:57:59;;;;;;;1.60;1.50;;;;;;;;;;10282408;28;20062;-60
2023/08/13 05:02:59;;;;;;;1.73;1.63;;;;;;;;;;10282414;28;20174;-60
2023/08/13 05:08:00;;;;;;;1.70;1.50;;;;;;;;;;10327929;28;20033;-60
2023/08/13 05:13:10;;;;;;;1.50;1.40;;;;;;;;;;10369448;28;20450;-60
2023/08/13 05:18:20;;;;;;;1.67;1.58;;;;;;;;;;10368666;28;20034;-60
2023/08/13 05:23:20;;;;;;;1.95;1.50;;;;;;;;;;10369160;28;20030;-60
2023/08/13 05:28:21;;;;;;;1.67;1.55;;;;;;;;;;10368381;28;20389;-60
2023/08/13 05:33:22;;;;;;;1.73;1.63;;;;;;;;;;10368425;28;20048;-60
2023/08/13 05:38:22;;;;;;;1.60;1.50;;;;;;;;;;10381751;23;20151;-51
2023/08/13 05:43:23;;;;;;;1.73;1.63;;;;;;;;;;10367868;28;20145;-51
2023/08/13 05:48:26;;;;;;;1.50;1.40;;;;;;;;;;10368520;28;20030;-51
2023/08/13 05:53:27;;;;;;;1.60;1.50;;;;;;;;;;10367892;28;20054;-49
2023/08/13 05:58:27;;;;;;;1.70;1.60;;;;;;;;;;10372528;28;20401;-49
2023/08/13 06:03:28;;;;;;;1.60;1.50;;;;;;;;;;10375997;28;20444;-51
2023/08/13 06:09:06;;;;;;;1.70;1.58;;;;;;;;;;10375676;28;20397;-51
2023/08/13 06:14:11;;;;;;;;;;;;;;;;;;10375970;28;20026;-51
2023/08/13 06:19:18;;;;;;;2.15;1.67;;;;;;;;;;10375332;28;19964;-50
2023/08/13 06:24:47;;;;;;;1.60;1.50;;;;;;;;;;10375038;28;20033;-50
2023/08/13 06:29:50;;;;;;;1.52;1.42;;;;;;;;;;10375005;28;20434;-51
2023/08/13 06:34:58;;;;;;;1.50;1.40;;;;;;;;;;10374486;28;20034;-52
2023/08/13 06:40:23;;;;;;;;;;;;;;;;;;10375160;28;20109;-50
2023/08/13 06:45:26;;;;;;;1.77;1.67;;;;;;;;;;10374760;28;20408;-50
2023/08/13 06:50:27;;;;;;;1.42;1.33;;;;;;;;;;10374269;28;20021;-52
2023/08/13 06:55:28;;;;;;;3.60;1.60;;;;;;;;;;10374017;28;20030;-51
2023/08/13 07:00:29;;;;;;;1.52;1.42;;;;;;;;;;10373751;28;20034;-51
2023/08/13 07:05:29;;;;;;;1.63;1.52;;;;;;;;;;10374122;28;20077;-51
2023/08/13 07:10:31;;;;;;;1.40;1.40;;;;;;;;;;10372676;28;20425;-50
2023/08/13 07:15:45;;;;;;;1.45;1.35;;;;;;;;;;10373798;28;20038;-60
2023/08/13 07:20:45;;;;;;;1.63;1.52;;;;;;;;;;10373127;28;20116;-51
2023/08/13 07:25:46;;;;;;;1.30;1.30;;;;;;;;;;10372860;28;20026;-51
2023/08/13 07:30:50;;;;;;;1.92;1.52;;;;;;;;;;10387894;28;20216;-50
2023/08/13 07:35:50;;;;;;;1.60;1.50;;;;;;;;;;10372206;28;20371;-51
2023/08/13 07:41:09;;;;;;;1.67;1.52;;;;;;;;;;10372837;28;20030;-51
2023/08/13 07:46:13;;;;;;;1.60;1.50;;;;;;;;;;10372239;28;20033;-51
2023/08/13 07:51:15;;;;;;;2.33;1.50;;;;;;;;;;10371731;28;20034;-62
2023/08/13 07:56:24;;;;;;;1.70;1.60;;;;;;;;;;10371674;28;20477;-50
2023/08/13 08:01:42;;;;;;;1.50;1.40;;;;;;;;;;10370255;28;20029;-51
2023/08/13 08:07:18;;;;;;;1.80;1.70;;;;;;;;;;10371260;28;20445;-51
2023/08/13 08:12:19;;;;;;;1.60;1.50;;;;;;;;;;10371520;28;20025;-60
2023/08/13 08:17:24;;;;;;;1.80;1.70;;;;;;;;;;10371199;28;20034;-51
2023/08/13 08:22:26;;;;;;;1.60;1.50;;;;;;;;;;10370709;28;20022;-53
2023/08/13 08:27:27;;;;;;;1.95;1.60;;;;;;;;;;10370408;28;20523;-51
2023/08/13 08:32:30;;;;;;;1.92;1.80;;;;;;;;;;10370247;28;20038;-52
2023/08/13 08:37:36;;;;;;;1.85;1.75;;;;;;;;;;10369644;28;20555;-51
2023/08/13 08:42:41;;;;;;;1.88;1.77;;;;;;;;;;10369877;28;20030;-51
2023/08/13 08:47:42;;;;;;;1.65;1.55;;;;;;;;;;10369078;28;20169;-50
2023/08/13 08:52:46;;;;;;;1.70;1.60;;;;;;;;;;10368779;28;20444;-52
2023/08/13 08:58:08;;;;;;;1.80;1.70;;;;;;;;;;10369314;28;20032;-53
2023/08/13 09:03:09;;;;;;;1.73;1.63;;;;;;;;;;10369713;28;20034;-51
2023/08/13 09:08:25;;;;;;;1.83;1.73;;;;;;;;;;10369752;28;20037;-53
2023/08/13 09:13:48;;;;;;;1.70;1.60;;;;;;;;;;10369311;28;20025;-51
2023/08/13 09:18:52;;;;;;;1.65;1.55;;;;;;;;;;10369011;28;20033;-51
2023/08/13 09:24:05;;;;;;;1.50;1.40;;;;;;;;;;10368546;28;20026;-50
2023/08/13 09:29:07;;;;;;;1.60;1.50;;;;;;;;;;10368516;28;20497;-51
2023/08/13 09:34:13;;;;;;;1.60;1.50;;;;;;;;;;10367772;28;20454;-51
2023/08/13 09:39:16;;;;;;;1.52;1.42;;;;;;;;;;10365994;28;20413;-54
2023/08/13 09:44:20;;;;;;;1.50;1.40;;;;;;;;;;10368585;28;20041;-51
2023/08/13 09:49:27;;;;;;;1.70;1.60;;;;;;;;;;10368471;28;20056;-51
2023/08/13 09:55:08;;;;;;;1.60;1.50;;;;;;;;;;10366741;28;20061;-50
2023/08/13 10:00:12;;;;;;;1.52;1.42;;;;;;;;;;10356158;28;20042;-51
2023/08/13 10:05:14;;;;;;;1.58;1.48;;;;;;;;;;10368109;28;20033;-58
2023/08/13 10:10:15;;;;;;;1.50;1.40;;;;;;;;;;10366889;28;20045;-51
2023/08/13 10:15:18;;;;;;;1.98;1.50;;;;;;;;;;10367261;28;20485;-50
2023/08/13 10:20:19;;;;;;;1.50;1.40;;;;;;;;;;10366164;28;20131;-52
2023/08/13 10:25:33;;;;;;;1.70;1.60;;;;;;;;;;10367804;28;20173;-51
2023/08/13 10:30:33;;;;;;;1.42;1.33;;;;;;;;;;10367609;28;20026;-52
2023/08/13 10:35:37;;;;;;;1.60;1.50;;;;;;;;;;10366871;28;20124;-51
2023/08/13 10:40:58;;;;;;;1.55;1.45;;;;;;;;;;10367561;28;20034;-51
2023/08/13 10:46:03;;;;;;;2.15;1.60;;;;;;;;;;10372011;28;20052;-50
2023/08/13 10:51:03;;;;;;;1.70;1.60;;;;;;;;;;10374195;28;20053;-50
2023/08/13 10:56:04;;;;;;;1.80;1.70;;;;;;;;;;10373966;28;20037;-62
2023/08/13 11:01:16;;;;;;;1.70;1.60;;;;;;;;;;10373702;28;20082;-51
2023/08/13 11:06:22;;;;;;;1.90;1.80;;;;;;;;;;10373613;28;20025;-52
2023/08/13 11:11:22;;;;;;;1.60;1.50;;;;;;;;;;10373394;28;20458;-50
2023/08/13 11:16:28;;;;;;;1.90;1.50;;;;;;;;;;10371853;28;20029;-52
2023/08/13 11:21:28;;;;;;;1.85;1.70;;;;;;;;;;10373030;28;20037;-60
2023/08/13 11:26:29;;;;;;;1.50;1.40;;;;;;;;;;10372869;28;20022;-51
2023/08/13 11:31:33;;;;;;;1.80;1.60;;;;;;;;;;10372629;28;20478;-50
2023/08/13 11:36:33;;;;;;;1.92;1.60;;;;;;;;;;10372560;28;20129;-51
2023/08/13 11:41:34;;;;;;;1.55;1.45;;;;;;;;;;10371469;28;20038;-51
2023/08/13 11:47:01;;;;;;;1.80;1.70;;;;;;;;;;10372105;28;20026;-50
2023/08/13 11:52:06;;;;;;;1.80;1.70;;;;;;;;;;10372947;28;20033;-51
2023/08/13 11:57:06;;;;;;;1.70;1.60;;;;;;;;;;10371419;28;20026;-50
2023/08/13 12:02:07;;;;;;;1.95;1.67;;;;;;;;;;10371422;28;20033;-48
2023/08/13 12:07:09;;;;;;;1.60;1.50;;;;;;;;;;10371271;28;20469;-53
2023/08/13 12:12:10;;;;;;;1.80;1.70;;;;;;;;;;10371073;28;20378;-51
2023/08/13 12:17:10;;;;;;;1.80;1.70;;;;;;;;;;10370809;28;20022;-51
2023/08/13 12:22:11;;;;;;;1.80;1.70;;;;;;;;;;10371542;28;20049;-49
2023/08/13 12:27:13;;;;;;;1.63;1.52;;;;;;;;;;10371076;28;20037;-51
2023/08/13 12:32:13;;;;;;;1.63;1.52;;;;;;;;;;10370562;28;20068;-50
2023/08/13 12:37:14;;;;;;;1.52;1.42;;;;;;;;;;10370168;28;20105;-51
2023/08/13 12:42:15;;;;;;;2.15;1.85;;;;;;;;;;10370175;28;20469;-67
2023/08/13 12:47:16;;;;;;;1.88;1.77;;;;;;;;;;10369928;28;20088;-50
2023/08/13 12:52:17;;;;;;;1.92;1.83;;;;;;;;;;10370362;28;20026;-55
2023/08/13 12:57:17;;;;;;;1.65;1.55;;;;;;;;;;10370053;28;20454;-49
2023/08/13 13:02:18;;;;;;;1.60;1.50;;;;;;;;;;10369428;28;20089;-48
2023/08/13 13:07:19;;;;;;;1.70;1.60;;;;;;;;;;10368436;28;20048;-50
2023/08/13 13:12:20;;;;;;;2.53;1.80;;;;;;;;;;10369192;28;20057;-51
2023/08/13 13:17:22;;;;;;;1.70;1.60;;;;;;;;;;10369365;28;20335;-50
2023/08/13 13:22:24;;;;;;;1.92;1.80;;;;;;;;;;10368879;28;20466;-51
2023/08/13 13:27:25;;;;;;;2.10;2.00;;;;;;;;;;10368650;28;20084;-49
2023/08/13 13:32:25;;;;;;;1.92;1.83;;;;;;;;;;10369072;28;20095;-49
2023/08/13 13:37:27;;;;;;;1.70;1.60;;;;;;;;;;10368103;28;20056;-51
2023/08/13 13:42:28;;;;;;;1.70;1.60;;;;;;;;;;10368741;28;20041;-50
2023/08/13 13:47:30;;;;;;;1.70;1.60;;;;;;;;;;10368018;28;20050;-49
2023/08/13 13:52:30;;;;;;;1.83;1.73;;;;;;;;;;10368567;28;20027;-51
2023/08/13 13:57:31;;;;;;;1.80;1.70;;;;;;;;;;10367742;28;20080;-54
2023/08/13 14:02:33;;;;;;;1.80;1.70;;;;;;;;;;10367897;28;20034;-50
2023/08/13 14:07:34;;;;;;;2.17;1.92;;;;;;;;;;10367950;28;20079;-51
2023/08/13 14:12:35;;;;;;;1.67;1.58;;;;;;;;;;10368269;28;20087;-52
2023/08/13 14:17:35;;;;;;;1.70;1.60;;;;;;;;;;10369635;28;20030;-59
2023/08/13 14:22:36;;;;;;;1.80;1.70;;;;;;;;;;10375613;28;20465;-51
2023/08/13 14:27:37;;;;;;;1.60;1.50;;;;;;;;;;10375344;28;20030;-51
2023/08/13 14:32:37;;;;;;;1.83;1.73;;;;;;;;;;10375741;28;20026;-51
2023/08/13 14:37:38;;;;;;;2.00;1.80;;;;;;;;;;10374634;28;20038;-51
2023/08/13 14:42:38;;;;;;;1.83;1.67;;;;;;;;;;10373682;28;20045;-51
2023/08/13 14:47:39;;;;;;;1.63;1.52;;;;;;;;;;10374978;28;20037;-51
2023/08/13 14:52:39;;;;;;;2.00;1.80;;;;;;;;;;10374290;28;20030;-51
2023/08/13 14:57:40;;;;;;;2.40;1.52;;;;;;;;;;10374160;28;20029;-50
2023/08/13 15:02:40;;;;;;;1.60;1.50;;;;;;;;;;10374078;28;20466;-51
2023/08/13 15:07:42;;;;;;;1.77;1.63;;;;;;;;;;10373897;28;20486;-51
2023/08/13 15:12:42;;;;;;;1.67;1.58;;;;;;;;;;10374296;28;20030;-51
2023/08/13 15:17:43;;;;;;;1.90;1.80;;;;;;;;;;10373336;28;20033;-58
2023/08/13 15:22:43;;;;;;;1.60;1.50;;;;;;;;;;10373842;28;20053;-53
2023/08/13 15:27:44;;;;;;;1.80;1.70;;;;;;;;;;10372994;28;20535;-50
2023/08/13 15:32:45;;;;;;;1.88;1.77;;;;;;;;;;10372143;28;20030;-56
2023/08/13 15:37:46;;;;;;;1.45;1.35;;;;;;;;;;10372414;28;20073;-67
2023/08/13 15:42:46;;;;;;;1.80;1.70;;;;;;;;;;10372512;28;20030;-50
2023/08/13 15:47:47;;;;;;;1.50;1.40;;;;;;;;;;10372099;28;20065;-57
2023/08/13 15:52:50;;;;;;;1.60;1.50;;;;;;;;;;10372211;28;20092;-51
2023/08/13 15:57:51;;;;;;;1.40;1.33;;;;;;;;;;10371850;28;20026;-50
2023/08/13 16:02:52;;;;;;;1.92;1.83;;;;;;;;;;10371715;28;20405;-49
2023/08/13 16:07:53;;;;;;;1.60;1.50;;;;;;;;;;10371476;28;20458;-50
2023/08/13 16:12:53;;;;;;;1.80;1.70;;;;;;;;;;10372385;28;20026;-64
2023/08/13 16:17:54;;;;;;;1.60;1.50;;;;;;;;;;10371017;28;20508;-55
2023/08/13 16:22:55;;;;;;;1.52;1.42;;;;;;;;;;10370964;28;20362;-56
2023/08/13 16:27:57;;;;;;;1.70;1.60;;;;;;;;;;10370692;28;20467;-51
2023/08/13 16:32:59;;;;;;;1.85;1.75;;;;;;;;;;10371116;28;20025;-51
2023/08/13 16:37:59;;;;;;;2.17;2.00;;;;;;;;;;10370190;28;20451;-50
2023/08/13 16:43:00;;;;;;;1.67;1.58;;;;;;;;;;10369642;28;20018;-49
2023/08/13 16:48:00;;;;;;;1.73;1.63;;;;;;;;;;10369880;28;20386;-51
2023/08/13 16:53:01;;;;;;;1.70;1.60;;;;;;;;;;10369876;28;20402;-50
2023/08/13 16:58:02;;;;;;;1.58;1.48;;;;;;;;;;10370072;28;20420;-51
2023/08/13 17:03:03;;;;;;;1.80;1.70;;;;;;;;;;10369510;28;20030;-50
2023/08/13 17:08:05;;;;;;;1.90;1.80;;;;;;;;;;10369271;28;20025;-50
2023/08/13 17:13:05;;;;;;;1.75;1.65;;;;;;;;;;10369201;28;20044;-50
2023/08/13 17:18:07;;;;;;;1.60;1.50;;;;;;;;;;10368927;28;20036;-51
2023/08/13 17:23:07;;;;;;;1.65;1.55;;;;;;;;;;10369392;28;20076;-50
2023/08/13 17:28:08;;;;;;;1.50;1.40;;;;;;;;;;10368754;28;20080;-51
2023/08/13 17:33:09;;;;;;;2.00;1.83;;;;;;;;;;10368454;28;20099;-48
2023/08/13 17:38:10;;;;;;;1.50;1.42;;;;;;;;;;10367922;28;20548;-50
2023/08/13 17:43:10;;;;;;;1.75;1.65;;;;;;;;;;10368698;28;20531;-50
2023/08/13 17:48:11;;;;;;;1.60;1.50;;;;;;;;;;10368167;28;20025;-50
2023/08/13 17:53:11;;;;;;;1.80;1.70;;;;;;;;;;10371407;28;20026;-49
2023/08/13 17:58:12;;;;;;;1.50;1.40;;;;;;;;;;10376411;28;20459;-51
2023/08/13 18:03:12;;;;;;;1.80;1.70;;;;;;;;;;10376364;28;20026;-51
2023/08/13 18:08:13;;;;;;;1.73;1.63;;;;;;;;;;10376089;28;20022;-51
2023/08/13 18:13:14;;;;;;;1.60;1.50;;;;;;;;;;10376097;28;20030;-51
2023/08/13 18:18:15;;;;;;;1.60;1.50;;;;;;;;;;10376619;28;20087;-49
2023/08/13 18:23:16;;;;;;;1.75;1.65;;;;;;;;;;10376159;28;20026;-50
2023/08/13 18:28:17;;;;;;;1.52;1.42;;;;;;;;;;10375267;28;20412;-50
2023/08/13 18:33:18;;;;;;;1.45;1.35;;;;;;;;;;10375107;28;20060;-51
2023/08/13 18:38:19;;;;;;;1.63;1.52;;;;;;;;;;10375062;28;20050;-51
2023/08/13 18:43:20;;;;;;;1.60;1.50;;;;;;;;;;10375336;28;20038;-51
2023/08/13 18:48:21;;;;;;;1.55;1.45;;;;;;;;;;10374552;28;20034;-51
2023/08/13 18:53:22;;;;;;;1.42;1.33;;;;;;;;;;10374388;28;20026;-52
2023/08/13 18:58:23;;;;;;;1.52;1.42;;;;;;;;;;10374057;28;20052;-50
2023/08/13 19:03:23;;;;;;;1.73;1.63;;;;;;;;;;10373139;28;20033;-48
2023/08/13 19:08:24;;;;;;;1.40;1.25;;;;;;;;;;10373448;28;20030;-49
2023/08/13 19:13:25;;;;;;;1.50;1.40;;;;;;;;;;10374181;28;20034;-50
2023/08/13 19:18:26;;;;;;;1.50;1.40;;;;;;;;;;10373243;28;20509;-49
2023/08/13 19:23:26;;;;;;;1.50;1.40;;;;;;;;;;10373143;28;20040;-51
2023/08/13 19:28:27;;;;;;;1.40;1.30;;;;;;;;;;10372944;28;20026;-50
2023/08/13 19:33:28;;;;;;;1.38;1.27;;;;;;;;;;10373180;28;20080;-65
2023/08/13 19:38:29;;;;;;;1.50;1.40;;;;;;;;;;10372468;28;20053;-51
2023/08/13 19:43:29;;;;;;;1.27;1.27;;;;;;;;;;10372387;28;20045;-50
2023/08/13 19:48:30;;;;;;;1.40;1.30;;;;;;;;;;10372069;28;20037;-51
2023/08/13 19:53:30;;;;;;;1.55;1.42;;;;;;;;;;10372082;28;20042;-51
2023/08/13 19:58:31;;;;;;;1.60;1.50;;;;;;;;;;10371748;28;20062;-48
2023/08/13 20:03:31;;;;;;;1.42;1.38;;;;;;;;;;10371677;28;20025;-51
2023/08/13 20:08:32;;;;;;;1.40;1.30;;;;;;;;;;10371409;28;20047;-49
2023/08/13 20:13:33;;;;;;;1.50;1.40;;;;;;;;;;10371256;28;20025;-51
2023/08/13 20:18:33;;;;;;;1.70;1.60;;;;;;;;;;10371553;28;20319;-63
2023/08/13 20:23:34;;;;;;;1.30;1.27;;;;;;;;;;10370869;28;20426;-51
2023/08/13 20:28:37;;;;;;;1.60;1.50;;;;;;;;;;10370559;28;20033;-50
2023/08/13 20:33:38;;;;;;;1.50;1.40;;;;;;;;;;10370887;28;20030;-50
2023/08/13 20:38:39;;;;;;;1.48;1.38;;;;;;;;;;10370229;28;20049;-49
2023/08/13 20:43:39;;;;;;;1.40;1.30;;;;;;;;;;10370631;28;20018;-50
2023/08/13 20:48:40;;;;;;;1.50;1.40;;;;;;;;;;10369767;28;20405;-49
2023/08/13 20:53:41;;;;;;;1.55;1.45;;;;;;;;;;10384786;28;20418;-57
2023/08/13 20:58:41;;;;;;;1.35;1.33;;;;;;;;;;10369991;28;20026;-50
2023/08/13 21:03:42;;;;;;;1.60;1.50;;;;;;;;;;10369743;28;20037;-51
2023/08/13 21:08:43;;;;;;;1.60;1.50;;;;;;;;;;10369828;28;20393;-50
2023/08/13 21:13:43;;;;;;;1.50;1.40;;;;;;;;;;10368930;28;20061;-50
2023/08/13 21:18:44;;;;;;;1.25;1.25;;;;;;;;;;10369229;28;20038;-50
2023/08/13 21:23:45;;;;;;;1.40;1.30;;;;;;;;;;10368699;28;20025;-49
2023/08/13 21:28:45;;;;;;;1.30;1.20;;;;;;;;;;10368520;28;20040;-50
2023/08/13 21:33:46;;;;;;;1.48;1.38;;;;;;;;;;10368288;28;20621;-51
2023/08/13 21:38:46;;;;;;;1.85;1.25;;;;;;;;;;10367963;28;20050;-57
2023/08/13 21:43:47;;;;;;;1.63;1.40;;;;;;;;;;10368658;28;20524;-49
2023/08/13 21:48:48;;;;;;;1.60;1.50;;;;;;;;;;10368108;28;20113;-51
2023/08/13 21:53:48;;;;;;;1.20;1.20;;;;;;;;;;10367964;28;20026;-48
2023/08/13 21:58:49;;;;;;;1.30;1.20;;;;;;;;;;10367801;28;20041;-51
2023/08/13 22:03:49;;;;;;;1.52;1.42;;;;;;;;;;10367799;28;20038;-50
2023/08/13 22:08:51;;;;;;;1.23;1.23;;;;;;;;;;10367760;28;20478;-47
2023/08/13 22:13:52;;;;;;;1.33;1.23;;;;;;;;;;10367614;28;20022;-49
2023/08/13 22:18:52;;;;;;;1.55;1.45;;;;;;;;;;10367607;28;20022;-61
2023/08/13 22:23:53;;;;;;;1.33;1.25;;;;;;;;;;10367509;28;20470;-50
2023/08/13 22:28:54;;;;;;;1.23;1.23;;;;;;;;;;10367422;28;20660;-50
2023/08/13 22:33:54;;;;;;;1.50;1.40;;;;;;;;;;10367623;28;20374;-51
2023/08/13 22:38:55;;;;;;;1.45;1.35;;;;;;;;;;10369000;28;20124;-50
2023/08/13 22:43:55;;;;;;;1.42;1.33;;;;;;;;;;10374696;28;20034;-47
2023/08/13 22:48:56;;;;;;;1.35;1.25;;;;;;;;;;10374630;28;20045;-51
2023/08/13 22:53:57;;;;;;;1.50;1.40;;;;;;;;;;10374318;28;20046;-49
2023/08/13 22:58:57;;;;;;;1.40;1.30;;;;;;;;;;10374187;28;20383;-49
2023/08/13 23:03:58;;;;;;;1.38;1.27;;;;;;;;;;10373894;28;20029;-50
2023/08/13 23:08:58;;;;;;;1.52;1.42;;;;;;;;;;10373858;28;20057;-51
2023/08/13 23:13:59;;;;;;;1.48;1.38;;;;;;;;;;10374200;28;20273;-49
2023/08/13 23:18:59;;;;;;;1.25;1.20;;;;;;;;;;10373331;28;20034;-50
2023/08/13 23:24:00;;;;;;;1.52;1.42;;;;;;;;;;10373296;28;20033;-50
2023/08/13 23:29:01;;;;;;;1.48;1.38;;;;;;;;;;10374104;28;20462;-50
2023/08/13 23:34:02;;;;;;;1.40;1.30;;;;;;;;;;10373403;28;20037;-50
2023/08/13 23:39:04;;;;;;;1.20;1.10;;;;;;;;;;10387671;28;20137;-49
2023/08/13 23:44:05;;;;;;;1.27;1.17;;;;;;;;;;10372957;28;20045;-49
2023/08/13 23:49:06;;;;;;;1.30;1.20;;;;;;;;;;10371107;28;20060;-50
2023/08/13 23:54:07;;;;;;;1.20;1.20;;;;;;;;;;10371551;28;20037;-51
2023/08/13 23:59:07;;;;;;;1.27;1.17;;;;;;;;;;10371892;28;20030;-50
